createdAt,value
2023-03-03T00:00:51.413Z,32.00
2023-03-03T00:03:26.060Z,32.90
2023-03-03T00:05:58.995Z,32.00
2023-03-03T00:08:32.538Z,31.80
2023-03-03T00:11:06.163Z,31.27
2023-03-03T00:13:48.015Z,31.20
2023-03-03T00:16:23.271Z,31.27
2023-03-03T00:18:56.116Z,29.40
2023-03-03T00:21:29.619Z,30.93
2023-03-03T00:24:21.062Z,30.40
2023-03-03T00:26:57.169Z,31.53
2023-03-03T00:29:40.580Z,31.50
2023-03-03T00:32:15.111Z,29.57
2023-03-03T00:34:47.371Z,32.47
2023-03-03T00:37:34.535Z,32.70
2023-03-03T00:40:12.155Z,33.40
2023-03-03T00:42:50.072Z,32.63
2023-03-03T00:45:29.905Z,32.10
2023-03-03T00:48:30.041Z,32.17
2023-03-03T00:51:06.588Z,37.55
2023-03-03T00:53:38.361Z,30.57
2023-03-03T00:56:10.099Z,31.10
2023-03-03T00:58:41.896Z,31.50
2023-03-03T01:01:14.824Z,29.23
2023-03-03T01:03:46.614Z,32.50
2023-03-03T01:06:18.398Z,31.07
2023-03-03T01:08:50.333Z,29.67
2023-03-03T01:11:24.846Z,31.70
2023-03-03T01:13:57.046Z,32.17
2023-03-03T01:16:29.143Z,32.57
2023-03-03T01:19:00.956Z,31.30
2023-03-03T01:21:32.632Z,33.53
2023-03-03T01:24:04.471Z,36.83
2023-03-03T01:26:36.147Z,33.57
2023-03-03T01:29:07.901Z,32.00
2023-03-03T01:31:40.405Z,36.80
2023-03-03T01:34:12.262Z,35.30
2023-03-03T01:36:44.044Z,30.43
2023-03-03T01:39:15.757Z,32.73
2023-03-03T01:41:47.594Z,32.33
2023-03-03T01:44:19.423Z,33.07
2023-03-03T01:47:35.612Z,32.07
2023-03-03T01:50:14.084Z,31.50
2023-03-03T01:52:47.333Z,31.37
2023-03-03T01:55:34.195Z,34.73
2023-03-03T01:58:17.794Z,30.00
2023-03-03T02:00:53.426Z,32.43
2023-03-03T02:03:25.420Z,37.97
2023-03-03T02:06:03.117Z,33.63
2023-03-03T02:08:54.269Z,32.33
2023-03-03T02:11:27.540Z,32.50
2023-03-03T02:13:59.343Z,32.57
2023-03-03T02:16:31.434Z,34.00
2023-03-03T02:19:07.954Z,35.10
2023-03-03T02:21:39.662Z,34.80
2023-03-03T02:24:20.392Z,34.90
2023-03-03T02:26:52.462Z,33.70
2023-03-03T02:29:24.236Z,34.03
2023-03-03T02:31:56.063Z,34.40
2023-03-03T02:34:27.897Z,35.53
2023-03-03T02:36:59.553Z,34.00
2023-03-03T02:39:31.248Z,37.25
2023-03-03T02:42:21.632Z,36.63
2023-03-03T02:44:54.132Z,36.93
2023-03-03T02:47:25.842Z,32.73
2023-03-03T02:49:57.509Z,31.17
2023-03-03T02:52:29.192Z,34.77
2023-03-03T02:55:00.923Z,35.40
2023-03-03T02:57:32.605Z,35.33
2023-03-03T03:00:05.377Z,34.30
2023-03-03T03:02:37.159Z,34.47
2023-03-03T03:05:09.054Z,34.10
2023-03-03T03:07:41.862Z,33.60
2023-03-03T03:10:13.697Z,33.40
2023-03-03T03:12:45.546Z,34.73
2023-03-03T03:15:17.237Z,33.40
2023-03-03T03:17:48.945Z,35.70
2023-03-03T03:20:20.689Z,34.60
2023-03-03T03:22:52.610Z,36.87
2023-03-03T03:25:24.311Z,35.13
2023-03-03T03:27:55.988Z,32.73
2023-03-03T03:30:27.801Z,32.03
2023-03-03T03:32:59.627Z,34.83
2023-03-03T03:35:33.582Z,39.00
2023-03-03T03:38:05.382Z,38.73
2023-03-03T03:40:37.074Z,34.90
2023-03-03T03:43:09.180Z,38.37
2023-03-03T03:45:43.601Z,35.60
2023-03-03T03:48:16.785Z,35.03
2023-03-03T03:50:49.473Z,34.70
2023-03-03T03:53:21.175Z,37.20
2023-03-03T03:55:52.970Z,35.57
2023-03-03T03:58:24.843Z,38.00
2023-03-03T04:01:05.684Z,34.53
2023-03-03T04:03:37.527Z,36.07
2023-03-03T04:06:09.284Z,35.27
2023-03-03T04:08:41.062Z,38.80
2023-03-03T04:11:12.891Z,42.53
2023-03-03T04:13:44.598Z,38.37
2023-03-03T04:16:16.424Z,33.77
2023-03-03T04:18:48.095Z,35.63
2023-03-03T04:21:20.371Z,33.20
2023-03-03T04:23:53.351Z,33.83
2023-03-03T04:26:25.281Z,32.60
2023-03-03T04:28:57.120Z,34.13
2023-03-03T04:31:28.956Z,34.20
2023-03-03T04:34:00.730Z,35.23
2023-03-03T04:36:32.483Z,35.70
2023-03-03T04:39:04.335Z,36.37
2023-03-03T04:41:36.081Z,34.43
2023-03-03T04:44:07.829Z,33.80
2023-03-03T04:46:39.550Z,33.10
2023-03-03T04:49:12.611Z,33.37
2023-03-03T04:51:44.447Z,32.77
2023-03-03T04:54:16.127Z,36.40
2023-03-03T04:56:47.846Z,32.77
2023-03-03T04:59:19.561Z,35.40
2023-03-03T05:01:51.409Z,33.47
2023-03-03T05:04:23.167Z,32.00
2023-03-03T05:06:54.905Z,35.27
2023-03-03T05:09:26.619Z,32.33
2023-03-03T05:11:58.406Z,34.50
2023-03-03T05:14:31.428Z,35.17
2023-03-03T05:17:04.645Z,33.50
2023-03-03T05:19:36.470Z,36.17
2023-03-03T05:22:08.296Z,35.23
2023-03-03T05:24:40.013Z,34.57
2023-03-03T05:27:11.905Z,35.13
2023-03-03T05:29:43.751Z,35.83
2023-03-03T05:32:15.812Z,37.50
2023-03-03T05:34:47.668Z,33.97
2023-03-03T05:37:19.419Z,35.70
2023-03-03T05:39:51.310Z,33.50
2023-03-03T05:42:23.080Z,35.13
2023-03-03T05:44:54.903Z,32.90
2023-03-03T05:47:26.681Z,37.70
2023-03-03T05:49:58.357Z,35.77
2023-03-03T05:52:30.252Z,35.97
2023-03-03T05:55:01.932Z,34.30
2023-03-03T05:57:33.887Z,34.60
2023-03-03T06:00:06.448Z,36.75
2023-03-03T06:02:38.153Z,38.20
2023-03-03T06:05:10.431Z,34.83
2023-03-03T06:07:42.421Z,34.10
2023-03-03T06:10:14.243Z,33.73
2023-03-03T06:12:46.010Z,33.93
2023-03-03T06:15:18.312Z,33.70
2023-03-03T06:17:50.258Z,32.73
2023-03-03T06:20:21.982Z,35.27
2023-03-03T06:22:53.725Z,34.63
2023-03-03T06:25:25.553Z,36.97
2023-03-03T06:27:58.060Z,32.53
2023-03-03T06:30:30.708Z,33.57
2023-03-03T06:33:02.444Z,32.63
2023-03-03T06:35:34.149Z,33.93
2023-03-03T06:38:05.988Z,34.63
2023-03-03T06:40:37.706Z,33.30
2023-03-03T06:43:09.926Z,34.80
2023-03-03T06:45:41.786Z,35.70
2023-03-03T06:48:13.513Z,31.87
2023-03-03T06:50:45.205Z,33.17
2023-03-03T06:53:18.886Z,34.20
2023-03-03T06:55:50.620Z,36.13
2023-03-03T06:58:24.522Z,35.20
2023-03-03T07:01:00.978Z,34.70
2023-03-03T07:03:36.201Z,35.20
2023-03-03T07:06:34.065Z,36.23
2023-03-03T07:09:13.237Z,33.43
2023-03-03T07:11:46.579Z,31.70
2023-03-03T07:14:20.172Z,47.40
2023-03-03T07:17:00.202Z,47.47
2023-03-03T07:19:35.591Z,35.50
2023-03-03T07:22:18.981Z,38.63
2023-03-03T07:25:01.976Z,35.63
2023-03-03T07:27:34.326Z,36.40
2023-03-03T07:30:12.141Z,34.80
2023-03-03T07:32:46.810Z,40.80
2023-03-03T07:35:38.838Z,34.20
2023-03-03T07:38:44.005Z,34.07
2023-03-03T07:41:23.471Z,33.43
2023-03-03T07:44:05.330Z,32.60
2023-03-03T07:46:44.631Z,35.47
2023-03-03T07:49:23.941Z,33.85
2023-03-03T07:51:57.837Z,34.30
2023-03-03T07:54:36.317Z,33.27
2023-03-03T07:57:27.509Z,33.70
2023-03-03T08:00:16.654Z,36.83
2023-03-03T08:03:03.087Z,35.07
2023-03-03T08:05:46.940Z,36.50
2023-03-03T08:08:31.095Z,35.13
2023-03-03T08:11:04.417Z,38.10
2023-03-03T08:13:38.072Z,36.20
2023-03-03T08:16:09.898Z,36.03
2023-03-03T08:18:48.320Z,34.80
2023-03-03T08:21:22.478Z,31.93
2023-03-03T08:23:54.365Z,37.60
2023-03-03T08:26:27.259Z,31.00
2023-03-03T08:28:58.944Z,33.30
2023-03-03T08:31:40.798Z,30.20
2023-03-03T08:34:13.491Z,30.80
2023-03-03T08:36:47.377Z,30.60
2023-03-03T08:39:19.130Z,28.23
2023-03-03T08:41:50.834Z,34.53
2023-03-03T08:44:22.555Z,32.20
2023-03-03T08:46:54.247Z,34.27
2023-03-03T08:49:25.964Z,35.33
2023-03-03T08:51:58.013Z,37.63
2023-03-03T08:54:30.028Z,34.78
2023-03-03T08:57:01.704Z,34.37
2023-03-03T08:59:37.761Z,34.47
2023-03-03T09:02:09.525Z,91.50
2023-03-03T09:04:41.313Z,36.03
2023-03-03T09:07:13.028Z,37.93
2023-03-03T09:09:45.269Z,39.10
2023-03-03T09:12:27.642Z,38.33
2023-03-03T09:15:07.769Z,39.73
2023-03-03T09:17:39.559Z,33.00
2023-03-03T09:20:32.607Z,33.67
2023-03-03T09:23:22.674Z,34.70
2023-03-03T09:25:54.494Z,36.20
2023-03-03T09:28:30.539Z,33.37
2023-03-03T09:31:07.404Z,35.33
2023-03-03T09:33:45.471Z,31.20
2023-03-03T09:36:29.423Z,34.97
2023-03-03T09:39:10.367Z,33.83
2023-03-03T09:41:57.264Z,31.23
2023-03-03T09:44:53.489Z,31.53
2023-03-03T09:47:33.227Z,31.47
2023-03-03T09:50:23.978Z,33.67
2023-03-03T09:53:17.242Z,29.87
2023-03-03T09:56:18.604Z,31.03
2023-03-03T09:59:05.025Z,33.13
2023-03-03T10:01:48.676Z,31.10
2023-03-03T10:04:59.745Z,30.90
2023-03-03T10:07:51.623Z,31.40
2023-03-03T10:10:51.324Z,31.43
2023-03-03T10:13:35.031Z,31.90
2023-03-03T10:16:50.580Z,30.27
2023-03-03T10:19:39.003Z,31.70
2023-03-03T10:22:40.636Z,32.33
2023-03-03T10:25:16.714Z,31.33
2023-03-03T10:28:18.672Z,29.63
2023-03-03T10:31:17.656Z,32.37
2023-03-03T10:34:04.843Z,32.22
2023-03-03T10:37:05.476Z,31.67
2023-03-03T10:40:14.908Z,29.40
2023-03-03T10:43:26.094Z,29.73
2023-03-03T10:46:10.759Z,31.20
2023-03-03T10:48:56.426Z,29.33
2023-03-03T10:51:39.569Z,29.50
2023-03-03T10:54:38.166Z,30.40
2023-03-03T10:57:40.748Z,30.37
2023-03-03T11:00:24.347Z,29.50
2023-03-03T11:03:26.397Z,30.97
2023-03-03T11:06:17.299Z,27.90
2023-03-03T11:08:57.888Z,28.67
2023-03-03T11:11:48.622Z,29.10
2023-03-03T11:14:24.412Z,28.63
2023-03-03T11:17:34.147Z,30.57
2023-03-03T11:20:37.347Z,28.30
2023-03-03T11:23:08.972Z,27.50
2023-03-03T11:25:58.717Z,26.83
2023-03-03T11:28:44.878Z,29.90
2023-03-03T11:31:32.143Z,29.50
2023-03-03T11:34:41.586Z,27.87
2023-03-03T11:37:27.376Z,29.13
2023-03-03T11:40:09.779Z,28.40
2023-03-03T11:42:54.512Z,27.97
2023-03-03T11:45:56.325Z,27.80
2023-03-03T11:48:56.576Z,28.63
2023-03-03T11:51:39.173Z,28.00
2023-03-03T11:54:25.085Z,28.73
2023-03-03T11:57:32.887Z,28.13
2023-03-03T12:01:03.997Z,26.87
2023-03-03T12:03:49.220Z,27.20
2023-03-03T12:06:40.626Z,29.23
2023-03-03T12:09:35.444Z,27.63
2023-03-03T12:12:10.805Z,31.57
2023-03-03T12:14:57.764Z,28.70
2023-03-03T12:17:50.506Z,27.60
2023-03-03T12:20:25.724Z,27.13
2023-03-03T12:23:15.892Z,29.40
2023-03-03T12:26:08.589Z,29.90
2023-03-03T12:28:59.669Z,28.92
2023-03-03T12:31:39.171Z,30.33
2023-03-03T12:34:28.858Z,29.27
2023-03-03T12:37:38.880Z,30.23
2023-03-03T12:40:20.346Z,29.40
2023-03-03T12:43:16.515Z,30.33
2023-03-03T12:45:58.655Z,30.73
2023-03-03T12:48:46.410Z,29.33
2023-03-03T12:51:26.502Z,32.00
2023-03-03T12:54:13.554Z,27.63
2023-03-03T12:56:54.132Z,29.13
2023-03-03T13:00:09.621Z,29.10
2023-03-03T13:02:58.554Z,29.03
2023-03-03T13:05:48.601Z,28.73
2023-03-03T13:08:20.390Z,28.17
2023-03-03T13:11:09.610Z,29.27
2023-03-03T13:13:48.372Z,28.10
2023-03-03T13:16:41.460Z,28.08
2023-03-03T13:19:26.873Z,28.53
2023-03-03T13:22:49.953Z,26.60
2023-03-03T13:25:31.500Z,29.07
2023-03-03T13:28:12.844Z,27.40
2023-03-03T13:30:49.930Z,28.67
2023-03-03T13:33:32.461Z,25.30
2023-03-03T13:36:13.518Z,26.33
2023-03-03T13:38:52.131Z,27.13
2023-03-03T13:41:49.229Z,28.13
2023-03-03T13:44:27.372Z,26.77
2023-03-03T13:47:23.413Z,27.90
2023-03-03T13:50:04.707Z,25.43
2023-03-03T13:53:04.093Z,26.80
2023-03-03T13:55:53.490Z,26.07
2023-03-03T13:59:10.460Z,25.67
2023-03-03T14:02:32.772Z,25.97
2023-03-03T14:05:34.362Z,26.37
2023-03-03T14:08:36.486Z,28.40
2023-03-03T14:11:19.860Z,25.83
2023-03-03T14:14:16.252Z,28.17
2023-03-03T14:17:06.150Z,29.30
2023-03-03T14:19:48.804Z,27.00
2023-03-03T14:22:32.430Z,25.73
2023-03-03T14:25:10.009Z,27.80
2023-03-03T14:28:13.935Z,27.80
2023-03-03T14:30:45.704Z,25.40
2023-03-03T14:33:21.463Z,27.37
2023-03-03T14:36:03.951Z,26.27
2023-03-03T14:38:41.231Z,28.77
2023-03-03T14:41:14.778Z,26.93
2023-03-03T14:44:00.605Z,28.70
2023-03-03T14:46:39.620Z,27.67
2023-03-03T14:49:31.827Z,28.57
2023-03-03T14:52:15.573Z,28.50
2023-03-03T14:54:52.957Z,26.57
2023-03-03T14:57:51.265Z,26.80
2023-03-03T15:00:22.943Z,27.87
2023-03-03T15:03:27.253Z,26.50
2023-03-03T15:05:59.075Z,27.10
2023-03-03T15:08:35.575Z,25.70
2023-03-03T15:11:13.344Z,24.80
2023-03-03T15:13:45.748Z,27.17
2023-03-03T15:16:25.176Z,26.77
2023-03-03T15:19:08.820Z,29.33
2023-03-03T15:21:55.323Z,28.07
2023-03-03T15:24:50.513Z,25.23
2023-03-03T15:27:35.451Z,27.42
2023-03-03T15:30:24.963Z,26.97
2023-03-03T15:33:29.314Z,28.40
2023-03-03T15:36:44.060Z,26.50
2023-03-03T15:40:07.098Z,25.33
2023-03-03T15:42:41.847Z,26.90
2023-03-03T15:45:19.582Z,26.20
2023-03-03T15:48:22.756Z,28.10
2023-03-03T15:51:16.148Z,27.90
2023-03-03T15:54:15.077Z,30.07
2023-03-03T15:56:50.794Z,26.87
2023-03-03T15:59:34.296Z,27.00
2023-03-03T16:02:33.205Z,25.90
2023-03-03T16:05:15.125Z,27.13
2023-03-03T16:07:53.241Z,24.70
2023-03-03T16:10:53.068Z,25.77
2023-03-03T16:13:59.466Z,25.00
2023-03-03T16:16:48.965Z,26.73
2023-03-03T16:19:38.699Z,27.77
2023-03-03T16:22:16.121Z,25.13
2023-03-03T16:25:06.681Z,27.13
2023-03-03T16:27:51.963Z,28.20
2023-03-03T16:30:34.931Z,27.83
2023-03-03T16:33:19.361Z,25.20
2023-03-03T16:36:03.536Z,26.80
2023-03-03T16:38:40.306Z,26.07
2023-03-03T16:41:17.555Z,26.10
2023-03-03T16:44:13.657Z,25.03
2023-03-03T16:46:49.250Z,24.97
2023-03-03T16:49:45.672Z,24.90
2023-03-03T16:52:24.238Z,24.90
2023-03-03T16:55:07.782Z,24.87
2023-03-03T16:57:53.275Z,24.80
2023-03-03T17:00:38.108Z,26.23
2023-03-03T17:03:32.724Z,25.50
2023-03-03T17:06:13.477Z,25.80
2023-03-03T17:09:30.114Z,25.40
2023-03-03T17:12:09.557Z,22.40
2023-03-03T17:14:49.742Z,24.77
2023-03-03T17:17:32.015Z,28.13
2023-03-03T17:20:35.554Z,28.05
2023-03-03T17:23:17.477Z,28.37
2023-03-03T17:26:03.336Z,24.20
2023-03-03T17:29:01.309Z,27.43
2023-03-03T17:32:04.003Z,27.83
2023-03-03T17:34:42.593Z,26.60
2023-03-03T17:37:31.496Z,26.40
2023-03-03T17:40:16.727Z,25.60
2023-03-03T17:43:15.034Z,28.60
2023-03-03T17:45:49.842Z,25.67
2023-03-03T17:48:51.640Z,25.40
2023-03-03T17:51:46.690Z,25.70
2023-03-03T17:54:36.845Z,28.40
2023-03-03T17:57:32.374Z,26.60
2023-03-03T18:00:07.242Z,25.67
2023-03-03T18:02:57.849Z,25.50
2023-03-03T18:06:00.136Z,26.80
2023-03-03T18:08:50.542Z,26.73
2023-03-03T18:11:25.091Z,26.87
2023-03-03T18:14:07.049Z,27.77
2023-03-03T18:17:40.062Z,27.23
2023-03-03T18:20:24.060Z,25.37
2023-03-03T18:22:56.115Z,27.47
2023-03-03T18:25:59.934Z,28.67
2023-03-03T18:28:49.903Z,29.57
2023-03-03T18:31:26.924Z,28.60
2023-03-03T18:34:20.384Z,27.10
2023-03-03T18:36:55.888Z,27.73
2023-03-03T18:39:41.262Z,27.40
2023-03-03T18:42:39.676Z,27.70
2023-03-03T18:45:11.295Z,27.30
2023-03-03T18:48:15.322Z,25.47
2023-03-03T18:50:49.796Z,26.50
2023-03-03T18:53:34.531Z,29.70
2023-03-03T18:56:11.236Z,28.80
2023-03-03T18:58:43.521Z,27.53
2023-03-03T19:01:41.538Z,28.60
2023-03-03T19:04:18.556Z,31.17
2023-03-03T19:06:51.373Z,30.10
2023-03-03T19:09:44.701Z,31.50
2023-03-03T19:16:03.625Z,32.50
2023-03-03T19:18:36.411Z,32.42
2023-03-03T19:21:11.205Z,33.50
2023-03-03T19:24:00.482Z,32.10
2023-03-03T19:27:07.917Z,32.63
2023-03-03T19:29:45.174Z,31.53
2023-03-03T19:32:55.566Z,32.60
2023-03-03T19:35:59.232Z,32.70
2023-03-03T19:38:33.840Z,31.40
2023-03-03T19:41:46.262Z,31.20
2023-03-03T19:44:42.248Z,37.45
2023-03-03T19:47:48.160Z,34.13
2023-03-03T19:50:41.392Z,35.03
2023-03-03T19:53:30.789Z,35.60
2023-03-03T19:56:46.895Z,34.53
2023-03-03T19:59:21.327Z,34.50
2023-03-03T20:02:01.995Z,33.07
2023-03-03T20:04:53.263Z,36.47
2023-03-03T20:07:45.975Z,31.90
2023-03-03T20:10:41.829Z,37.20
2023-03-03T20:13:25.664Z,32.93
2023-03-03T20:16:16.231Z,33.00
2023-03-03T20:19:00.766Z,35.73
2023-03-03T20:21:34.089Z,34.73
2023-03-03T20:24:27.505Z,35.80
2023-03-03T20:27:08.825Z,35.20
2023-03-03T20:29:54.269Z,36.80
2023-03-03T20:32:44.660Z,40.60
2023-03-03T20:35:53.389Z,38.47
2023-03-03T20:38:40.204Z,42.42
2023-03-03T20:42:05.739Z,41.67
2023-03-03T20:44:49.440Z,39.97
2023-03-03T20:47:42.585Z,40.23
2023-03-03T20:50:15.568Z,40.80
2023-03-03T20:53:07.658Z,37.80
2023-03-03T20:56:03.712Z,37.67
2023-03-03T20:58:54.744Z,38.90
2023-03-03T21:01:29.485Z,36.60
2023-03-03T21:04:23.168Z,36.67
2023-03-03T21:06:55.520Z,41.13
2023-03-03T21:09:35.103Z,39.17
2023-03-03T21:12:27.548Z,37.63
2023-03-03T21:15:35.881Z,37.93
2023-03-03T21:18:26.714Z,36.60
2023-03-03T21:20:59.601Z,36.20
2023-03-03T21:23:31.368Z,38.00
2023-03-03T21:26:03.397Z,38.77
2023-03-03T21:28:35.159Z,41.20
2023-03-03T21:31:08.785Z,37.77
2023-03-03T21:33:56.821Z,42.10
2023-03-03T21:36:37.616Z,38.60
2023-03-03T21:39:23.167Z,38.80
2023-03-03T21:42:06.456Z,38.50
2023-03-03T21:44:49.799Z,38.37
2023-03-03T21:47:23.953Z,36.53
2023-03-03T21:49:55.655Z,39.20
2023-03-03T21:52:27.388Z,39.70
2023-03-03T21:54:59.090Z,39.93
2023-03-03T21:57:31.131Z,37.80
2023-03-03T22:00:05.607Z,38.57
2023-03-03T22:02:37.601Z,42.17
2023-03-03T22:05:09.867Z,39.57
2023-03-03T22:07:41.554Z,39.23
2023-03-03T22:10:13.214Z,40.30
2023-03-03T22:12:44.948Z,38.93
2023-03-03T22:15:16.761Z,38.90
2023-03-03T22:17:48.481Z,35.97
2023-03-03T22:20:20.550Z,39.60
2023-03-03T22:22:52.276Z,39.10
2023-03-03T22:25:24.029Z,38.90
2023-03-03T22:27:55.766Z,38.03
2023-03-03T22:30:27.582Z,37.47
2023-03-03T22:32:59.270Z,36.97
2023-03-03T22:35:31.225Z,41.70
2023-03-03T22:38:03.470Z,38.50
2023-03-03T22:40:35.194Z,38.50
2023-03-03T22:43:07.059Z,38.67
2023-03-03T22:45:38.825Z,37.33
2023-03-03T22:48:11.357Z,37.13
2023-03-03T22:50:45.180Z,46.50
2023-03-03T22:53:16.951Z,42.40
2023-03-03T22:55:48.641Z,40.40
2023-03-03T22:58:21.179Z,39.17
2023-03-03T23:00:54.135Z,40.57
2023-03-03T23:03:25.933Z,41.60
2023-03-03T23:05:57.648Z,40.57
2023-03-03T23:08:29.366Z,40.90
2023-03-03T23:11:01.026Z,40.37
2023-03-03T23:13:32.913Z,36.90
2023-03-03T23:16:05.164Z,40.73
2023-03-03T23:18:36.947Z,35.90
2023-03-03T23:21:08.662Z,39.00
2023-03-03T23:23:40.344Z,40.15
2023-03-03T23:26:12.329Z,40.10
2023-03-03T23:28:44.312Z,38.87
2023-03-03T23:31:16.060Z,40.97
2023-03-03T23:33:47.977Z,41.03
2023-03-03T23:36:19.693Z,39.90
2023-03-03T23:38:51.367Z,40.33
2023-03-03T23:41:23.026Z,38.50
2023-03-03T23:43:54.699Z,41.28
2023-03-03T23:46:26.424Z,36.80
2023-03-03T23:48:59.865Z,38.93
2023-03-03T23:51:32.066Z,38.30
2023-03-03T23:54:03.844Z,38.43
2023-03-03T23:56:35.594Z,40.90
2023-03-03T23:59:07.268Z,37.13
